sensor_id;sensor_type;location;lat;lon;timestamp;temperature;humidity
12817;DHT22;6473;51.552;6.716;2023-06-22T00:00:49;20.90;99.90
12817;DHT22;6473;51.552;6.716;2023-06-22T00:03:16;20.90;99.90
12817;DHT22;6473;51.552;6.716;2023-06-22T00:05:43;20.90;99.90
12817;DHT22;6473;51.552;6.716;2023-06-22T00:08:10;20.90;99.90
12817;DHT22;6473;51.552;6.716;2023-06-22T00:10:37;20.90;99.90
12817;DHT22;6473;51.552;6.716;2023-06-22T00:13:04;20.90;99.90
12817;DHT22;6473;51.552;6.716;2023-06-22T00:15:33;20.90;99.90
12817;DHT22;6473;51.552;6.716;2023-06-22T00:18:00;20.90;99.90
12817;DHT22;6473;51.552;6.716;2023-06-22T00:20:28;20.90;99.90
12817;DHT22;6473;51.552;6.716;2023-06-22T00:22:55;20.90;99.90
12817;DHT22;6473;51.552;6.716;2023-06-22T00:25:23;20.90;99.90
12817;DHT22;6473;51.552;6.716;2023-06-22T00:27:50;20.80;99.90
12817;DHT22;6473;51.552;6.716;2023-06-22T00:30:18;20.90;99.90
12817;DHT22;6473;51.552;6.716;2023-06-22T00:32:46;20.80;99.90
12817;DHT22;6473;51.552;6.716;2023-06-22T00:35:14;20.90;99.90
12817;DHT22;6473;51.552;6.716;2023-06-22T00:37:41;20.80;99.90
12817;DHT22;6473;51.552;6.716;2023-06-22T00:40:09;20.80;99.90
12817;DHT22;6473;51.552;6.716;2023-06-22T00:42:37;20.80;99.90
12817;DHT22;6473;51.552;6.716;2023-06-22T00:45:05;20.80;99.90
12817;DHT22;6473;51.552;6.716;2023-06-22T00:47:34;20.80;99.90
12817;DHT22;6473;51.552;6.716;2023-06-22T00:50:06;20.80;99.90
12817;DHT22;6473;51.552;6.716;2023-06-22T00:52:33;20.80;99.90
12817;DHT22;6473;51.552;6.716;2023-06-22T00:55:02;20.70;99.90
12817;DHT22;6473;51.552;6.716;2023-06-22T00:57:29;20.60;99.90
12817;DHT22;6473;51.552;6.716;2023-06-22T00:59:57;20.60;99.90
12817;DHT22;6473;51.552;6.716;2023-06-22T01:02:33;20.60;99.90
12817;DHT22;6473;51.552;6.716;2023-06-22T01:05:02;20.50;99.90
12817;DHT22;6473;51.552;6.716;2023-06-22T01:07:35;20.50;99.90
12817;DHT22;6473;51.552;6.716;2023-06-22T01:10:06;20.50;99.90
12817;DHT22;6473;51.552;6.716;2023-06-22T01:12:42;20.60;99.90
12817;DHT22;6473;51.552;6.716;2023-06-22T01:15:17;20.40;99.90
12817;DHT22;6473;51.552;6.716;2023-06-22T01:17:46;20.40;99.90
12817;DHT22;6473;51.552;6.716;2023-06-22T01:20:15;20.40;99.90
12817;DHT22;6473;51.552;6.716;2023-06-22T01:22:55;20.40;99.90
12817;DHT22;6473;51.552;6.716;2023-06-22T01:25:31;20.30;99.90
12817;DHT22;6473;51.552;6.716;2023-06-22T01:28:04;20.40;99.90
12817;DHT22;6473;51.552;6.716;2023-06-22T01:30:33;20.40;99.90
12817;DHT22;6473;51.552;6.716;2023-06-22T01:33:04;20.30;99.90
12817;DHT22;6473;51.552;6.716;2023-06-22T01:35:31;20.30;99.90
12817;DHT22;6473;51.552;6.716;2023-06-22T01:38:00;20.10;99.90
12817;DHT22;6473;51.552;6.716;2023-06-22T01:40:28;20.20;99.90
12817;DHT22;6473;51.552;6.716;2023-06-22T01:42:56;20.20;99.90
12817;DHT22;6473;51.552;6.716;2023-06-22T01:45:24;20.30;99.90
12817;DHT22;6473;51.552;6.716;2023-06-22T01:47:52;21.70;99.90
12817;DHT22;6473;51.552;6.716;2023-06-22T01:50:20;20.20;99.90
12817;DHT22;6473;51.552;6.716;2023-06-22T01:52:48;21.40;99.90
12817;DHT22;6473;51.552;6.716;2023-06-22T01:55:15;20.20;99.90
12817;DHT22;6473;51.552;6.716;2023-06-22T01:57:42;20.20;99.90
12817;DHT22;6473;51.552;6.716;2023-06-22T02:00:12;21.50;99.90
12817;DHT22;6473;51.552;6.716;2023-06-22T02:02:49;20.20;99.90
12817;DHT22;6473;51.552;6.716;2023-06-22T02:05:20;20.30;99.90
12817;DHT22;6473;51.552;6.716;2023-06-22T02:08:00;20.20;99.90
12817;DHT22;6473;51.552;6.716;2023-06-22T02:10:31;20.20;99.90
12817;DHT22;6473;51.552;6.716;2023-06-22T02:12:59;20.20;99.90
12817;DHT22;6473;51.552;6.716;2023-06-22T02:15:27;20.20;99.90
12817;DHT22;6473;51.552;6.716;2023-06-22T02:17:54;20.20;99.90
12817;DHT22;6473;51.552;6.716;2023-06-22T02:20:24;20.20;99.90
12817;DHT22;6473;51.552;6.716;2023-06-22T02:22:50;20.10;99.90
12817;DHT22;6473;51.552;6.716;2023-06-22T02:25:17;20.10;99.90
12817;DHT22;6473;51.552;6.716;2023-06-22T02:27:45;20.10;99.90
12817;DHT22;6473;51.552;6.716;2023-06-22T02:30:12;20.10;99.90
12817;DHT22;6473;51.552;6.716;2023-06-22T02:32:40;20.20;99.90
12817;DHT22;6473;51.552;6.716;2023-06-22T02:35:08;20.20;99.90
12817;DHT22;6473;51.552;6.716;2023-06-22T02:37:37;20.10;99.90
12817;DHT22;6473;51.552;6.716;2023-06-22T02:40:09;20.10;99.90
12817;DHT22;6473;51.552;6.716;2023-06-22T02:42:36;20.20;99.90
12817;DHT22;6473;51.552;6.716;2023-06-22T02:45:03;20.20;99.90
12817;DHT22;6473;51.552;6.716;2023-06-22T02:47:30;20.20;99.90
12817;DHT22;6473;51.552;6.716;2023-06-22T02:49:57;20.10;99.90
12817;DHT22;6473;51.552;6.716;2023-06-22T02:52:25;20.10;99.90
12817;DHT22;6473;51.552;6.716;2023-06-22T02:54:53;20.10;99.90
12817;DHT22;6473;51.552;6.716;2023-06-22T02:57:20;20.20;99.90
12817;DHT22;6473;51.552;6.716;2023-06-22T02:59:47;20.10;99.90
12817;DHT22;6473;51.552;6.716;2023-06-22T03:02:14;20.00;99.90
12817;DHT22;6473;51.552;6.716;2023-06-22T03:04:41;20.00;99.90
12817;DHT22;6473;51.552;6.716;2023-06-22T03:07:09;21.20;99.90
12817;DHT22;6473;51.552;6.716;2023-06-22T03:09:35;19.90;99.90
12817;DHT22;6473;51.552;6.716;2023-06-22T03:12:04;19.90;99.90
12817;DHT22;6473;51.552;6.716;2023-06-22T03:14:42;19.90;99.90
12817;DHT22;6473;51.552;6.716;2023-06-22T03:17:09;19.90;99.90
12817;DHT22;6473;51.552;6.716;2023-06-22T03:19:37;19.80;99.90
12817;DHT22;6473;51.552;6.716;2023-06-22T03:22:04;19.80;99.90
12817;DHT22;6473;51.552;6.716;2023-06-22T03:24:31;19.70;99.90
12817;DHT22;6473;51.552;6.716;2023-06-22T03:26:59;19.70;99.90
12817;DHT22;6473;51.552;6.716;2023-06-22T03:29:27;19.70;99.90
12817;DHT22;6473;51.552;6.716;2023-06-22T03:31:54;19.60;99.90
12817;DHT22;6473;51.552;6.716;2023-06-22T03:34:21;19.60;99.90
12817;DHT22;6473;51.552;6.716;2023-06-22T03:36:51;19.60;99.90
12817;DHT22;6473;51.552;6.716;2023-06-22T03:39:18;19.50;99.90
12817;DHT22;6473;51.552;6.716;2023-06-22T03:41:46;19.50;99.90
12817;DHT22;6473;51.552;6.716;2023-06-22T03:44:12;19.50;99.90
12817;DHT22;6473;51.552;6.716;2023-06-22T03:46:40;19.50;99.90
12817;DHT22;6473;51.552;6.716;2023-06-22T03:49:07;19.50;99.90
12817;DHT22;6473;51.552;6.716;2023-06-22T03:51:34;19.50;99.90
12817;DHT22;6473;51.552;6.716;2023-06-22T03:54:01;19.90;99.90
12817;DHT22;6473;51.552;6.716;2023-06-22T03:56:28;19.50;99.90
12817;DHT22;6473;51.552;6.716;2023-06-22T03:58:54;19.40;99.90
12817;DHT22;6473;51.552;6.716;2023-06-22T04:01:22;21.00;99.90
12817;DHT22;6473;51.552;6.716;2023-06-22T04:03:50;19.40;99.90
12817;DHT22;6473;51.552;6.716;2023-06-22T04:06:16;19.30;99.90
12817;DHT22;6473;51.552;6.716;2023-06-22T04:08:45;19.40;99.90
12817;DHT22;6473;51.552;6.716;2023-06-22T04:11:16;19.50;99.90
12817;DHT22;6473;51.552;6.716;2023-06-22T04:13:43;19.50;99.90
12817;DHT22;6473;51.552;6.716;2023-06-22T04:16:10;20.80;99.90
12817;DHT22;6473;51.552;6.716;2023-06-22T04:18:36;19.50;99.90
12817;DHT22;6473;51.552;6.716;2023-06-22T04:21:05;19.70;99.90
12817;DHT22;6473;51.552;6.716;2023-06-22T04:23:31;20.30;99.90
12817;DHT22;6473;51.552;6.716;2023-06-22T04:25:58;19.80;99.90
12817;DHT22;6473;51.552;6.716;2023-06-22T04:28:25;20.20;99.90
12817;DHT22;6473;51.552;6.716;2023-06-22T04:30:52;22.10;99.90
12817;DHT22;6473;51.552;6.716;2023-06-22T04:33:23;21.00;99.90
12817;DHT22;6473;51.552;6.716;2023-06-22T04:35:50;20.20;99.90
12817;DHT22;6473;51.552;6.716;2023-06-22T04:38:18;20.40;99.90
12817;DHT22;6473;51.552;6.716;2023-06-22T04:40:47;20.50;99.90
12817;DHT22;6473;51.552;6.716;2023-06-22T04:43:13;20.50;99.90
12817;DHT22;6473;51.552;6.716;2023-06-22T04:45:40;23.00;99.90
12817;DHT22;6473;51.552;6.716;2023-06-22T04:48:07;20.70;99.90
12817;DHT22;6473;51.552;6.716;2023-06-22T04:50:35;20.60;99.90
12817;DHT22;6473;51.552;6.716;2023-06-22T04:53:03;20.70;99.90
12817;DHT22;6473;51.552;6.716;2023-06-22T04:55:32;22.30;99.90
12817;DHT22;6473;51.552;6.716;2023-06-22T04:57:59;20.80;99.90
12817;DHT22;6473;51.552;6.716;2023-06-22T05:00:30;20.80;99.90
12817;DHT22;6473;51.552;6.716;2023-06-22T05:02:57;20.80;99.90
12817;DHT22;6473;51.552;6.716;2023-06-22T05:05:24;20.70;99.90
12817;DHT22;6473;51.552;6.716;2023-06-22T05:07:51;21.90;99.90
12817;DHT22;6473;51.552;6.716;2023-06-22T05:10:20;20.70;99.90
12817;DHT22;6473;51.552;6.716;2023-06-22T05:12:48;20.50;99.90
12817;DHT22;6473;51.552;6.716;2023-06-22T05:15:15;20.60;99.90
12817;DHT22;6473;51.552;6.716;2023-06-22T05:17:45;21.20;99.90
12817;DHT22;6473;51.552;6.716;2023-06-22T05:20:12;20.50;99.90
12817;DHT22;6473;51.552;6.716;2023-06-22T05:22:39;20.50;99.90
12817;DHT22;6473;51.552;6.716;2023-06-22T05:25:09;20.50;99.90
12817;DHT22;6473;51.552;6.716;2023-06-22T05:27:36;20.40;99.90
12817;DHT22;6473;51.552;6.716;2023-06-22T05:30:07;20.40;99.90
12817;DHT22;6473;51.552;6.716;2023-06-22T05:32:34;20.30;99.90
12817;DHT22;6473;51.552;6.716;2023-06-22T05:35:01;20.20;99.90
12817;DHT22;6473;51.552;6.716;2023-06-22T05:37:28;20.20;99.90
12817;DHT22;6473;51.552;6.716;2023-06-22T05:39:55;20.90;99.90
12817;DHT22;6473;51.552;6.716;2023-06-22T05:42:22;20.20;99.90
12817;DHT22;6473;51.552;6.716;2023-06-22T05:44:51;20.30;99.90
12817;DHT22;6473;51.552;6.716;2023-06-22T05:47:20;21.90;99.90
12817;DHT22;6473;51.552;6.716;2023-06-22T05:49:48;20.40;99.90
12817;DHT22;6473;51.552;6.716;2023-06-22T05:52:15;22.90;99.90
12817;DHT22;6473;51.552;6.716;2023-06-22T05:54:41;20.40;99.90
12817;DHT22;6473;51.552;6.716;2023-06-22T05:57:08;20.30;99.90
12817;DHT22;6473;51.552;6.716;2023-06-22T05:59:35;20.40;99.90
12817;DHT22;6473;51.552;6.716;2023-06-22T06:02:02;20.40;99.90
12817;DHT22;6473;51.552;6.716;2023-06-22T06:04:31;20.50;99.90
12817;DHT22;6473;51.552;6.716;2023-06-22T06:06:58;20.50;99.90
12817;DHT22;6473;51.552;6.716;2023-06-22T06:09:25;20.50;99.90
12817;DHT22;6473;51.552;6.716;2023-06-22T06:11:52;20.30;99.90
12817;DHT22;6473;51.552;6.716;2023-06-22T06:14:18;21.60;99.90
12817;DHT22;6473;51.552;6.716;2023-06-22T06:16:45;22.00;99.90
12817;DHT22;6473;51.552;6.716;2023-06-22T06:19:12;21.50;99.90
12817;DHT22;6473;51.552;6.716;2023-06-22T06:21:40;20.30;99.90
12817;DHT22;6473;51.552;6.716;2023-06-22T06:24:07;20.10;99.90
12817;DHT22;6473;51.552;6.716;2023-06-22T06:26:34;20.10;99.90
12817;DHT22;6473;51.552;6.716;2023-06-22T06:29:01;20.10;99.90
12817;DHT22;6473;51.552;6.716;2023-06-22T06:31:28;20.70;99.90
12817;DHT22;6473;51.552;6.716;2023-06-22T06:33:56;20.20;99.90
12817;DHT22;6473;51.552;6.716;2023-06-22T06:36:22;20.40;99.90
12817;DHT22;6473;51.552;6.716;2023-06-22T06:38:51;19.70;99.90
12817;DHT22;6473;51.552;6.716;2023-06-22T06:41:18;20.40;99.90
12817;DHT22;6473;51.552;6.716;2023-06-22T06:43:45;20.40;99.90
12817;DHT22;6473;51.552;6.716;2023-06-22T06:46:12;20.40;99.90
12817;DHT22;6473;51.552;6.716;2023-06-22T06:48:39;20.20;99.90
12817;DHT22;6473;51.552;6.716;2023-06-22T06:51:07;20.40;99.90
12817;DHT22;6473;51.552;6.716;2023-06-22T06:53:35;20.30;99.90
12817;DHT22;6473;51.552;6.716;2023-06-22T06:56:04;20.30;99.90
12817;DHT22;6473;51.552;6.716;2023-06-22T06:58:31;20.20;99.90
12817;DHT22;6473;51.552;6.716;2023-06-22T07:00:58;20.70;99.90
12817;DHT22;6473;51.552;6.716;2023-06-22T07:03:25;20.40;99.90
12817;DHT22;6473;51.552;6.716;2023-06-22T07:05:52;21.60;99.90
12817;DHT22;6473;51.552;6.716;2023-06-22T07:08:19;20.10;99.90
12817;DHT22;6473;51.552;6.716;2023-06-22T07:10:45;20.10;99.90
12817;DHT22;6473;51.552;6.716;2023-06-22T07:13:14;20.70;99.90
12817;DHT22;6473;51.552;6.716;2023-06-22T07:15:40;20.10;99.90
12817;DHT22;6473;51.552;6.716;2023-06-22T07:18:07;20.10;99.90
12817;DHT22;6473;51.552;6.716;2023-06-22T07:20:34;20.00;99.90
12817;DHT22;6473;51.552;6.716;2023-06-22T07:23:01;22.50;99.90
12817;DHT22;6473;51.552;6.716;2023-06-22T07:25:28;20.90;99.90
12817;DHT22;6473;51.552;6.716;2023-06-22T07:28:02;20.20;99.90
12817;DHT22;6473;51.552;6.716;2023-06-22T07:30:31;20.30;99.90
12817;DHT22;6473;51.552;6.716;2023-06-22T07:32:58;20.30;99.90
12817;DHT22;6473;51.552;6.716;2023-06-22T07:35:29;20.40;99.90
12817;DHT22;6473;51.552;6.716;2023-06-22T07:37:56;21.10;99.90
12817;DHT22;6473;51.552;6.716;2023-06-22T07:40:22;22.50;99.90
12817;DHT22;6473;51.552;6.716;2023-06-22T07:42:49;20.50;99.90
12817;DHT22;6473;51.552;6.716;2023-06-22T07:45:17;20.90;99.90
12817;DHT22;6473;51.552;6.716;2023-06-22T07:47:45;20.60;99.90
12817;DHT22;6473;51.552;6.716;2023-06-22T07:50:12;22.00;99.90
12817;DHT22;6473;51.552;6.716;2023-06-22T07:52:39;20.60;99.90
12817;DHT22;6473;51.552;6.716;2023-06-22T07:55:07;22.10;99.90
12817;DHT22;6473;51.552;6.716;2023-06-22T07:57:34;20.60;99.90
12817;DHT22;6473;51.552;6.716;2023-06-22T08:00:03;20.70;99.90
12817;DHT22;6473;51.552;6.716;2023-06-22T08:02:38;20.80;99.90
12817;DHT22;6473;51.552;6.716;2023-06-22T08:05:07;20.90;99.90
12817;DHT22;6473;51.552;6.716;2023-06-22T08:07:34;21.10;99.90
12817;DHT22;6473;51.552;6.716;2023-06-22T08:10:03;21.30;99.90
12817;DHT22;6473;51.552;6.716;2023-06-22T08:12:30;21.20;99.90
12817;DHT22;6473;51.552;6.716;2023-06-22T08:14:57;21.10;99.90
12817;DHT22;6473;51.552;6.716;2023-06-22T08:17:23;21.30;99.90
12817;DHT22;6473;51.552;6.716;2023-06-22T08:19:50;21.30;99.90
12817;DHT22;6473;51.552;6.716;2023-06-22T08:22:18;21.20;99.90
12817;DHT22;6473;51.552;6.716;2023-06-22T08:24:45;21.30;99.90
12817;DHT22;6473;51.552;6.716;2023-06-22T08:27:12;21.40;99.90
12817;DHT22;6473;51.552;6.716;2023-06-22T08:29:40;21.40;99.90
12817;DHT22;6473;51.552;6.716;2023-06-22T08:32:08;23.70;99.90
12817;DHT22;6473;51.552;6.716;2023-06-22T08:34:35;21.60;99.90
12817;DHT22;6473;51.552;6.716;2023-06-22T08:37:02;21.80;99.90
12817;DHT22;6473;51.552;6.716;2023-06-22T08:39:33;22.00;99.90
12817;DHT22;6473;51.552;6.716;2023-06-22T08:42:00;22.30;99.90
12817;DHT22;6473;51.552;6.716;2023-06-22T08:44:26;22.30;99.90
12817;DHT22;6473;51.552;6.716;2023-06-22T08:46:53;22.30;99.90
12817;DHT22;6473;51.552;6.716;2023-06-22T08:49:20;22.20;99.90
12817;DHT22;6473;51.552;6.716;2023-06-22T08:51:48;22.30;99.90
12817;DHT22;6473;51.552;6.716;2023-06-22T08:54:19;22.20;99.90
12817;DHT22;6473;51.552;6.716;2023-06-22T08:56:47;22.30;99.90
12817;DHT22;6473;51.552;6.716;2023-06-22T08:59:14;22.40;99.90
12817;DHT22;6473;51.552;6.716;2023-06-22T09:01:41;22.40;99.90
12817;DHT22;6473;51.552;6.716;2023-06-22T09:04:14;22.50;99.90
12817;DHT22;6473;51.552;6.716;2023-06-22T09:06:41;22.60;99.90
12817;DHT22;6473;51.552;6.716;2023-06-22T09:09:10;22.60;99.90
12817;DHT22;6473;51.552;6.716;2023-06-22T09:11:37;22.60;99.90
12817;DHT22;6473;51.552;6.716;2023-06-22T09:14:05;22.80;99.90
12817;DHT22;6473;51.552;6.716;2023-06-22T09:16:32;23.80;99.90
12817;DHT22;6473;51.552;6.716;2023-06-22T09:18:59;22.60;99.90
12817;DHT22;6473;51.552;6.716;2023-06-22T09:21:26;22.70;99.90
12817;DHT22;6473;51.552;6.716;2023-06-22T09:23:52;22.80;99.90
12817;DHT22;6473;51.552;6.716;2023-06-22T09:26:19;22.70;99.90
12817;DHT22;6473;51.552;6.716;2023-06-22T09:28:46;22.90;99.90
12817;DHT22;6473;51.552;6.716;2023-06-22T09:31:15;23.60;99.90
12817;DHT22;6473;51.552;6.716;2023-06-22T09:33:42;22.80;99.90
12817;DHT22;6473;51.552;6.716;2023-06-22T09:36:09;22.80;99.90
12817;DHT22;6473;51.552;6.716;2023-06-22T09:38:36;21.20;99.90
12817;DHT22;6473;51.552;6.716;2023-06-22T09:41:04;23.00;99.90
12817;DHT22;6473;51.552;6.716;2023-06-22T09:43:32;23.00;99.90
12817;DHT22;6473;51.552;6.716;2023-06-22T09:46:00;22.90;99.90
12817;DHT22;6473;51.552;6.716;2023-06-22T09:48:29;23.00;99.90
12817;DHT22;6473;51.552;6.716;2023-06-22T09:50:56;22.90;99.90
12817;DHT22;6473;51.552;6.716;2023-06-22T09:53:23;22.90;99.90
12817;DHT22;6473;51.552;6.716;2023-06-22T09:55:50;22.90;99.90
12817;DHT22;6473;51.552;6.716;2023-06-22T09:58:17;24.30;99.90
12817;DHT22;6473;51.552;6.716;2023-06-22T10:00:43;22.80;99.90
12817;DHT22;6473;51.552;6.716;2023-06-22T10:03:10;22.80;99.90
12817;DHT22;6473;51.552;6.716;2023-06-22T10:05:38;22.80;99.90
12817;DHT22;6473;51.552;6.716;2023-06-22T10:08:05;23.40;99.90
12817;DHT22;6473;51.552;6.716;2023-06-22T10:10:33;23.00;99.90
12817;DHT22;6473;51.552;6.716;2023-06-22T10:13:08;23.10;99.90
12817;DHT22;6473;51.552;6.716;2023-06-22T10:15:35;23.50;99.90
12817;DHT22;6473;51.552;6.716;2023-06-22T10:18:02;23.90;99.90
12817;DHT22;6473;51.552;6.716;2023-06-22T10:20:29;24.40;99.90
12817;DHT22;6473;51.552;6.716;2023-06-22T10:22:58;25.10;99.90
12817;DHT22;6473;51.552;6.716;2023-06-22T10:25:25;25.70;99.90
12817;DHT22;6473;51.552;6.716;2023-06-22T10:27:51;26.70;99.90
12817;DHT22;6473;51.552;6.716;2023-06-22T10:30:18;27.10;98.70
12817;DHT22;6473;51.552;6.716;2023-06-22T10:32:45;26.60;93.10
12817;DHT22;6473;51.552;6.716;2023-06-22T10:35:12;26.60;91.20
12817;DHT22;6473;51.552;6.716;2023-06-22T10:37:42;28.00;92.40
12817;DHT22;6473;51.552;6.716;2023-06-22T10:40:11;27.10;88.10
12817;DHT22;6473;51.552;6.716;2023-06-22T10:42:38;27.20;83.70
12817;DHT22;6473;51.552;6.716;2023-06-22T10:45:06;27.40;83.30
12817;DHT22;6473;51.552;6.716;2023-06-22T10:47:33;27.30;77.90
12817;DHT22;6473;51.552;6.716;2023-06-22T10:50:01;27.10;85.90
12817;DHT22;6473;51.552;6.716;2023-06-22T10:52:27;26.90;81.80
12817;DHT22;6473;51.552;6.716;2023-06-22T10:54:54;26.90;88.40
12817;DHT22;6473;51.552;6.716;2023-06-22T10:57:22;26.90;85.10
12817;DHT22;6473;51.552;6.716;2023-06-22T10:59:49;26.80;84.50
12817;DHT22;6473;51.552;6.716;2023-06-22T11:02:16;26.70;87.80
12817;DHT22;6473;51.552;6.716;2023-06-22T11:04:43;26.40;84.50
12817;DHT22;6473;51.552;6.716;2023-06-22T11:07:10;26.30;88.90
12817;DHT22;6473;51.552;6.716;2023-06-22T11:09:36;26.10;91.20
12817;DHT22;6473;51.552;6.716;2023-06-22T11:12:06;25.90;93.20
12817;DHT22;6473;51.552;6.716;2023-06-22T11:14:34;25.80;94.60
12817;DHT22;6473;51.552;6.716;2023-06-22T11:17:01;25.50;95.80
12817;DHT22;6473;51.552;6.716;2023-06-22T11:19:28;25.50;98.50
12817;DHT22;6473;51.552;6.716;2023-06-22T11:21:54;25.30;98.80
12817;DHT22;6473;51.552;6.716;2023-06-22T11:24:22;25.00;99.30
12817;DHT22;6473;51.552;6.716;2023-06-22T11:26:48;25.00;99.90
12817;DHT22;6473;51.552;6.716;2023-06-22T11:29:15;24.90;99.90
12817;DHT22;6473;51.552;6.716;2023-06-22T11:31:43;25.00;99.90
12817;DHT22;6473;51.552;6.716;2023-06-22T11:34:10;24.90;99.90
12817;DHT22;6473;51.552;6.716;2023-06-22T11:36:37;24.80;99.90
12817;DHT22;6473;51.552;6.716;2023-06-22T11:39:04;24.70;99.90
12817;DHT22;6473;51.552;6.716;2023-06-22T11:41:31;25.60;99.90
12817;DHT22;6473;51.552;6.716;2023-06-22T11:43:58;24.70;99.90
12817;DHT22;6473;51.552;6.716;2023-06-22T11:46:25;24.60;99.90
12817;DHT22;6473;51.552;6.716;2023-06-22T11:48:53;25.20;99.90
12817;DHT22;6473;51.552;6.716;2023-06-22T11:51:20;24.10;99.90
12817;DHT22;6473;51.552;6.716;2023-06-22T11:53:47;24.00;99.90
12817;DHT22;6473;51.552;6.716;2023-06-22T11:56:14;23.80;99.90
12817;DHT22;6473;51.552;6.716;2023-06-22T11:58:40;23.90;99.90
12817;DHT22;6473;51.552;6.716;2023-06-22T12:01:07;23.30;99.90
12817;DHT22;6473;51.552;6.716;2023-06-22T12:03:34;24.00;99.90
12817;DHT22;6473;51.552;6.716;2023-06-22T12:06:02;23.10;99.90
12817;DHT22;6473;51.552;6.716;2023-06-22T12:08:29;23.10;99.90
12817;DHT22;6473;51.552;6.716;2023-06-22T12:10:56;22.80;99.90
12817;DHT22;6473;51.552;6.716;2023-06-22T12:13:22;22.70;99.90
12817;DHT22;6473;51.552;6.716;2023-06-22T12:15:49;22.80;99.90
12817;DHT22;6473;51.552;6.716;2023-06-22T12:18:17;22.80;99.90
12817;DHT22;6473;51.552;6.716;2023-06-22T12:20:46;22.80;99.90
12817;DHT22;6473;51.552;6.716;2023-06-22T12:28:38;22.90;99.90
12817;DHT22;6473;51.552;6.716;2023-06-22T12:31:05;22.90;99.90
12817;DHT22;6473;51.552;6.716;2023-06-22T12:33:32;22.90;99.90
12817;DHT22;6473;51.552;6.716;2023-06-22T12:35:58;23.20;99.90
12817;DHT22;6473;51.552;6.716;2023-06-22T12:38:25;23.40;99.90
12817;DHT22;6473;51.552;6.716;2023-06-22T12:40:52;24.00;99.90
12817;DHT22;6473;51.552;6.716;2023-06-22T12:43:19;24.80;99.90
12817;DHT22;6473;51.552;6.716;2023-06-22T12:45:47;26.10;99.90
12817;DHT22;6473;51.552;6.716;2023-06-22T12:48:14;26.70;99.90
12817;DHT22;6473;51.552;6.716;2023-06-22T12:50:41;26.50;99.90
12817;DHT22;6473;51.552;6.716;2023-06-22T12:53:08;26.20;99.90
12817;DHT22;6473;51.552;6.716;2023-06-22T12:55:35;26.20;99.90
12817;DHT22;6473;51.552;6.716;2023-06-22T12:58:02;25.80;99.90
12817;DHT22;6473;51.552;6.716;2023-06-22T13:00:28;25.80;99.90
12817;DHT22;6473;51.552;6.716;2023-06-22T13:02:57;25.80;99.90
12817;DHT22;6473;51.552;6.716;2023-06-22T13:05:24;25.70;99.90
12817;DHT22;6473;51.552;6.716;2023-06-22T13:07:50;26.90;99.90
12817;DHT22;6473;51.552;6.716;2023-06-22T13:10:17;25.60;99.90
12817;DHT22;6473;51.552;6.716;2023-06-22T13:12:44;27.20;99.90
12817;DHT22;6473;51.552;6.716;2023-06-22T13:15:11;25.60;99.90
12817;DHT22;6473;51.552;6.716;2023-06-22T13:17:38;25.60;99.90
12817;DHT22;6473;51.552;6.716;2023-06-22T13:20:07;25.50;99.90
12817;DHT22;6473;51.552;6.716;2023-06-22T13:22:35;25.60;99.90
12817;DHT22;6473;51.552;6.716;2023-06-22T13:25:06;23.60;99.90
12817;DHT22;6473;51.552;6.716;2023-06-22T13:27:33;25.20;99.90
12817;DHT22;6473;51.552;6.716;2023-06-22T13:30:00;25.20;99.90
12817;DHT22;6473;51.552;6.716;2023-06-22T13:32:28;25.30;99.90
12817;DHT22;6473;51.552;6.716;2023-06-22T13:34:55;25.00;99.90
12817;DHT22;6473;51.552;6.716;2023-06-22T13:37:23;24.80;99.90
12817;DHT22;6473;51.552;6.716;2023-06-22T13:39:50;24.70;99.90
12817;DHT22;6473;51.552;6.716;2023-06-22T13:42:17;24.50;99.90
12817;DHT22;6473;51.552;6.716;2023-06-22T13:44:44;24.40;99.90
12817;DHT22;6473;51.552;6.716;2023-06-22T13:47:10;24.40;99.90
12817;DHT22;6473;51.552;6.716;2023-06-22T13:49:37;24.20;99.90
12817;DHT22;6473;51.552;6.716;2023-06-22T13:52:05;24.20;99.90
12817;DHT22;6473;51.552;6.716;2023-06-22T13:54:37;24.10;99.90
12817;DHT22;6473;51.552;6.716;2023-06-22T13:57:04;25.50;99.90
12817;DHT22;6473;51.552;6.716;2023-06-22T13:59:31;24.00;99.90
12817;DHT22;6473;51.552;6.716;2023-06-22T14:01:58;24.00;99.90
12817;DHT22;6473;51.552;6.716;2023-06-22T14:04:25;24.00;99.90
12817;DHT22;6473;51.552;6.716;2023-06-22T14:06:52;24.10;99.90
12817;DHT22;6473;51.552;6.716;2023-06-22T14:09:18;24.30;99.90
12817;DHT22;6473;51.552;6.716;2023-06-22T14:11:46;24.30;99.90
12817;DHT22;6473;51.552;6.716;2023-06-22T14:14:13;24.30;99.90
12817;DHT22;6473;51.552;6.716;2023-06-22T14:16:40;24.40;99.90
12817;DHT22;6473;51.552;6.716;2023-06-22T14:19:07;24.20;99.90
12817;DHT22;6473;51.552;6.716;2023-06-22T14:21:34;24.20;99.90
12817;DHT22;6473;51.552;6.716;2023-06-22T14:24:01;24.10;99.90
12817;DHT22;6473;51.552;6.716;2023-06-22T14:26:27;24.10;99.90
12817;DHT22;6473;51.552;6.716;2023-06-22T14:28:55;24.10;99.90
12817;DHT22;6473;51.552;6.716;2023-06-22T14:31:22;24.20;99.90
12817;DHT22;6473;51.552;6.716;2023-06-22T14:33:49;24.10;99.90
12817;DHT22;6473;51.552;6.716;2023-06-22T14:36:16;24.00;99.90
12817;DHT22;6473;51.552;6.716;2023-06-22T14:38:44;24.10;99.90
12817;DHT22;6473;51.552;6.716;2023-06-22T14:41:11;24.10;99.90
12817;DHT22;6473;51.552;6.716;2023-06-22T14:43:38;24.00;99.90
12817;DHT22;6473;51.552;6.716;2023-06-22T14:46:07;24.00;99.90
12817;DHT22;6473;51.552;6.716;2023-06-22T14:48:33;23.90;99.90
12817;DHT22;6473;51.552;6.716;2023-06-22T14:51:00;24.10;99.90
12817;DHT22;6473;51.552;6.716;2023-06-22T14:53:27;24.50;99.90
12817;DHT22;6473;51.552;6.716;2023-06-22T14:55:54;23.90;99.90
12817;DHT22;6473;51.552;6.716;2023-06-22T14:58:21;23.70;99.90
12817;DHT22;6473;51.552;6.716;2023-06-22T15:00:48;23.70;99.90
12817;DHT22;6473;51.552;6.716;2023-06-22T15:03:16;23.60;99.90
12817;DHT22;6473;51.552;6.716;2023-06-22T15:05:47;25.20;99.90
12817;DHT22;6473;51.552;6.716;2023-06-22T15:08:14;23.50;99.90
12817;DHT22;6473;51.552;6.716;2023-06-22T15:10:41;23.40;99.90
12817;DHT22;6473;51.552;6.716;2023-06-22T15:13:08;23.30;99.90
12817;DHT22;6473;51.552;6.716;2023-06-22T15:15:35;24.80;99.90
12817;DHT22;6473;51.552;6.716;2023-06-22T15:18:02;23.30;99.90
12817;DHT22;6473;51.552;6.716;2023-06-22T15:20:30;23.30;99.90
12817;DHT22;6473;51.552;6.716;2023-06-22T15:22:57;23.30;99.90
12817;DHT22;6473;51.552;6.716;2023-06-22T15:25:24;23.40;99.90
12817;DHT22;6473;51.552;6.716;2023-06-22T15:27:51;23.20;99.90
12817;DHT22;6473;51.552;6.716;2023-06-22T15:30:20;23.20;99.90
12817;DHT22;6473;51.552;6.716;2023-06-22T15:32:48;23.20;99.90
12817;DHT22;6473;51.552;6.716;2023-06-22T15:35:15;23.10;99.90
12817;DHT22;6473;51.552;6.716;2023-06-22T15:37:45;23.70;99.90
12817;DHT22;6473;51.552;6.716;2023-06-22T15:40:12;22.80;99.90
12817;DHT22;6473;51.552;6.716;2023-06-22T15:42:39;23.00;99.90
12817;DHT22;6473;51.552;6.716;2023-06-22T15:45:07;22.60;99.90
12817;DHT22;6473;51.552;6.716;2023-06-22T15:47:34;22.50;99.90
12817;DHT22;6473;51.552;6.716;2023-06-22T15:50:01;22.60;99.90
12817;DHT22;6473;51.552;6.716;2023-06-22T15:52:27;22.40;99.90